createdAt,value
2022-10-28T00:01:26.408Z,115.55
2022-10-28T00:03:58.111Z,112.13
2022-10-28T00:06:30.307Z,112.22
2022-10-28T00:08:57.595Z,110.35
2022-10-28T00:11:26.630Z,109.38
2022-10-28T00:13:58.089Z,112.72
2022-10-28T00:16:28.218Z,107.57
2022-10-28T00:18:55.157Z,106.05
2022-10-28T00:21:24.192Z,106.15
2022-10-28T00:23:50.853Z,104.43
2022-10-28T00:26:22.970Z,100.80
2022-10-28T00:28:52.756Z,105.00
2022-10-28T00:31:21.728Z,102.25
2022-10-28T00:33:48.406Z,101.63
2022-10-28T00:36:33.164Z,98.97
2022-10-28T00:39:01.121Z,97.25
2022-10-28T00:41:29.083Z,99.35
2022-10-28T00:44:34.012Z,94.95
2022-10-28T00:47:00.450Z,95.25
2022-10-28T00:49:34.057Z,93.82
2022-10-28T00:52:05.900Z,90.90
2022-10-28T00:54:33.418Z,93.88
2022-10-28T00:57:02.985Z,89.72
2022-10-28T00:59:35.060Z,92.53
2022-10-28T01:02:02.354Z,86.57
2022-10-28T01:04:29.005Z,91.20
2022-10-28T01:06:56.104Z,88.35
2022-10-28T01:09:22.580Z,89.03
2022-10-28T01:12:28.002Z,81.93
2022-10-28T01:15:24.798Z,87.03
2022-10-28T01:18:22.548Z,87.25
2022-10-28T01:21:26.500Z,85.38
2022-10-28T01:24:11.381Z,82.20
2022-10-28T01:26:46.657Z,84.25
2022-10-28T01:29:41.215Z,85.10
2022-10-28T01:32:14.754Z,85.03
2022-10-28T01:35:11.822Z,84.32
2022-10-28T01:37:47.313Z,80.30
2022-10-28T01:40:33.498Z,79.47
2022-10-28T01:43:10.128Z,78.40
2022-10-28T01:45:51.909Z,78.47
2022-10-28T01:48:26.141Z,72.68
2022-10-28T01:50:57.941Z,76.13
2022-10-28T01:53:28.815Z,76.28
2022-10-28T01:55:59.407Z,73.45
2022-10-28T01:58:30.238Z,75.50
2022-10-28T02:00:59.579Z,73.03
2022-10-28T02:03:27.190Z,70.25
2022-10-28T02:05:56.444Z,69.85
2022-10-28T02:08:53.979Z,73.45
2022-10-28T02:11:26.071Z,69.28
2022-10-28T02:14:18.543Z,70.90
2022-10-28T02:16:59.207Z,71.63
2022-10-28T02:19:40.641Z,67.47
2022-10-28T02:22:13.139Z,69.03
2022-10-28T02:24:48.609Z,66.53
2022-10-28T02:27:26.579Z,64.20
2022-10-28T02:30:03.492Z,65.65
2022-10-28T02:32:34.899Z,64.07
2022-10-28T02:35:03.231Z,63.28
2022-10-28T02:37:33.132Z,63.95
2022-10-28T02:40:04.318Z,63.67
2022-10-28T02:42:35.456Z,64.90
2022-10-28T02:45:12.421Z,64.60
2022-10-28T02:47:43.670Z,63.20
2022-10-28T02:50:14.986Z,61.42
2022-10-28T02:52:44.835Z,61.95
2022-10-28T02:55:11.381Z,59.17
2022-10-28T02:57:42.096Z,62.17
2022-10-28T03:00:16.485Z,58.08
2022-10-28T03:02:43.051Z,59.05
2022-10-28T03:05:10.404Z,58.13
2022-10-28T03:07:36.911Z,57.72
2022-10-28T03:10:03.714Z,57.42
2022-10-28T03:12:30.289Z,56.13
2022-10-28T03:14:56.702Z,54.67
2022-10-28T03:17:23.128Z,55.28
2022-10-28T03:19:49.723Z,54.92
2022-10-28T03:22:16.261Z,54.95
2022-10-28T03:24:42.690Z,53.95
2022-10-28T03:27:09.171Z,56.10
2022-10-28T03:29:35.656Z,53.10
2022-10-28T03:32:02.784Z,54.65
2022-10-28T03:34:29.283Z,52.50
2022-10-28T03:36:55.821Z,50.47
2022-10-28T03:39:22.352Z,51.95
2022-10-28T03:41:48.837Z,50.22
2022-10-28T03:44:15.240Z,50.95
2022-10-28T03:46:41.659Z,50.40
2022-10-28T03:49:08.141Z,47.78
2022-10-28T03:51:34.598Z,50.22
2022-10-28T03:54:01.032Z,48.70
2022-10-28T03:56:27.544Z,50.75
2022-10-28T03:58:53.968Z,46.50
2022-10-28T04:01:20.772Z,47.80
2022-10-28T04:03:47.260Z,46.72
2022-10-28T04:06:14.428Z,46.60
2022-10-28T04:08:40.854Z,45.97
2022-10-28T04:11:07.332Z,46.38
2022-10-28T04:13:33.963Z,45.00
2022-10-28T04:16:02.183Z,45.53
2022-10-28T04:18:28.724Z,45.33
2022-10-28T04:20:55.157Z,43.08
2022-10-28T04:23:21.675Z,43.17
2022-10-28T04:25:52.141Z,44.47
2022-10-28T04:28:18.745Z,43.15
2022-10-28T04:30:47.634Z,43.65
2022-10-28T04:33:14.088Z,42.30
2022-10-28T04:35:42.853Z,41.17
2022-10-28T04:38:10.618Z,41.85
2022-10-28T04:40:37.773Z,41.97
2022-10-28T04:43:07.386Z,43.22
2022-10-28T04:45:36.323Z,43.25
2022-10-28T04:48:02.800Z,41.42
2022-10-28T04:50:29.278Z,40.65
2022-10-28T04:52:56.184Z,38.22
2022-10-28T04:55:23.017Z,38.72
2022-10-28T04:57:56.960Z,37.45
2022-10-28T05:00:24.929Z,38.25
2022-10-28T05:02:51.501Z,38.88
2022-10-28T05:05:18.651Z,38.85
2022-10-28T05:07:46.012Z,39.42
2022-10-28T05:10:15.446Z,35.33
2022-10-28T05:12:43.120Z,36.70
2022-10-28T05:15:10.934Z,35.50
2022-10-28T05:17:42.986Z,36.00
2022-10-28T05:20:11.713Z,36.13
2022-10-28T05:22:38.282Z,37.05
2022-10-28T05:25:05.352Z,33.63
2022-10-28T05:27:31.798Z,36.28
2022-10-28T05:29:58.221Z,34.40
2022-10-28T05:32:24.745Z,34.65
2022-10-28T05:34:51.150Z,33.92
2022-10-28T05:37:17.603Z,33.35
2022-10-28T05:39:44.113Z,32.78
2022-10-28T05:42:10.522Z,33.33
2022-10-28T05:44:37.002Z,33.17
2022-10-28T05:47:03.527Z,32.33
2022-10-28T05:49:29.925Z,32.83
2022-10-28T05:51:56.413Z,30.58
2022-10-28T05:54:23.076Z,30.52
2022-10-28T05:56:49.513Z,28.83
2022-10-28T05:59:15.949Z,31.70
2022-10-28T06:01:42.425Z,29.52
2022-10-28T06:04:09.108Z,30.92
2022-10-28T06:06:35.587Z,30.55
2022-10-28T06:09:02.026Z,30.10
2022-10-28T06:11:27.047Z,28.65
2022-10-28T06:13:53.532Z,26.15
2022-10-28T06:16:19.967Z,29.13
2022-10-28T06:18:46.401Z,27.70
2022-10-28T06:21:13.090Z,26.15
2022-10-28T06:23:39.560Z,26.77
2022-10-28T06:26:06.048Z,27.40
2022-10-28T06:28:32.573Z,27.48
2022-10-28T06:31:03.459Z,24.73
2022-10-28T06:33:31.645Z,26.00
2022-10-28T06:35:59.218Z,26.27
2022-10-28T06:38:27.389Z,26.05
2022-10-28T06:40:56.939Z,26.92
2022-10-28T06:43:23.737Z,25.95
2022-10-28T06:45:54.901Z,25.08
2022-10-28T06:48:23.727Z,23.15
2022-10-28T06:50:56.221Z,22.70
2022-10-28T06:53:22.837Z,22.75
2022-10-28T06:55:57.210Z,23.13
2022-10-28T06:58:25.033Z,22.38
2022-10-28T07:00:52.359Z,22.30
2022-10-28T07:03:18.993Z,24.27
2022-10-28T07:05:46.941Z,49.85
2022-10-28T07:08:14.451Z,75.10
2022-10-28T07:10:42.112Z,66.85
2022-10-28T07:13:08.621Z,57.83
2022-10-28T07:15:35.033Z,58.05
2022-10-28T07:18:02.586Z,57.05
2022-10-28T07:20:31.923Z,53.22
2022-10-28T07:22:59.936Z,51.47
2022-10-28T07:25:28.052Z,49.33
2022-10-28T07:27:56.586Z,45.22
2022-10-28T07:30:23.365Z,46.13
2022-10-28T07:32:49.902Z,46.58
2022-10-28T07:35:16.371Z,44.70
2022-10-28T07:37:42.885Z,59.92
2022-10-28T07:40:09.700Z,85.88
2022-10-28T07:42:36.152Z,91.45
2022-10-28T07:45:02.845Z,94.20
2022-10-28T07:47:29.250Z,114.97
2022-10-28T07:49:55.973Z,119.07
2022-10-28T07:52:22.726Z,129.38
2022-10-28T07:54:50.588Z,121.05
2022-10-28T07:57:17.007Z,124.72
2022-10-28T07:59:43.464Z,116.03
2022-10-28T08:02:17.046Z,110.20
2022-10-28T08:04:43.515Z,104.50
2022-10-28T08:07:10.051Z,103.55
2022-10-28T08:09:36.472Z,106.18
2022-10-28T08:12:03.031Z,103.65
2022-10-28T08:14:29.450Z,99.25
2022-10-28T08:16:55.842Z,109.40
2022-10-28T08:19:22.275Z,103.13
2022-10-28T08:21:48.736Z,105.15
2022-10-28T08:24:15.270Z,104.13
2022-10-28T08:26:41.804Z,101.25
2022-10-28T08:29:10.387Z,101.05
2022-10-28T08:31:36.827Z,98.40
2022-10-28T08:34:03.407Z,105.43
2022-10-28T08:36:29.876Z,176.48
2022-10-28T08:38:56.789Z,187.05
2022-10-28T08:41:44.216Z,221.88
2022-10-28T08:44:22.907Z,267.92
2022-10-28T08:47:07.785Z,322.00
2022-10-28T08:49:39.043Z,213.25
2022-10-28T08:52:29.525Z,206.00
2022-10-28T08:55:00.156Z,266.83
2022-10-28T08:57:50.951Z,293.05
2022-10-28T09:00:36.898Z,357.45
2022-10-28T09:03:12.096Z,342.90
2022-10-28T09:05:44.756Z,291.30
2022-10-28T09:11:10.722Z,296.42
2022-10-28T09:14:13.474Z,288.70
2022-10-28T09:17:14.838Z,280.10
2022-10-28T09:20:12.104Z,275.92
2022-10-28T09:22:58.102Z,262.10
2022-10-28T09:25:35.605Z,260.83
2022-10-28T09:28:14.076Z,254.70
2022-10-28T09:30:46.132Z,251.45
2022-10-28T09:33:28.988Z,250.20
2022-10-28T09:38:32.849Z,238.75
2022-10-28T09:41:06.014Z,235.18
2022-10-28T09:43:35.279Z,227.68
2022-10-28T09:46:13.678Z,222.32
2022-10-28T09:48:52.563Z,224.13
2022-10-28T09:51:37.753Z,219.02
2022-10-28T09:54:04.282Z,216.85
2022-10-28T09:56:30.976Z,210.05
2022-10-28T09:59:01.022Z,208.77
2022-10-28T10:01:32.492Z,204.13
2022-10-28T10:03:59.343Z,201.73
2022-10-28T10:06:29.497Z,202.00
2022-10-28T10:08:56.791Z,192.43
2022-10-28T10:11:32.986Z,193.77
2022-10-28T10:14:06.686Z,189.90
2022-10-28T10:16:33.088Z,189.73
2022-10-28T10:19:02.917Z,182.43
2022-10-28T10:21:43.296Z,180.98
2022-10-28T10:24:34.085Z,176.27
2022-10-28T10:27:03.757Z,176.95
2022-10-28T10:29:31.226Z,171.82
2022-10-28T10:32:07.692Z,171.68
2022-10-28T10:34:34.439Z,173.30
2022-10-28T10:37:01.103Z,165.18
2022-10-28T10:39:37.106Z,162.23
2022-10-28T10:42:15.739Z,164.70
2022-10-28T10:44:43.354Z,169.20
2022-10-28T10:47:17.747Z,184.48
2022-10-28T10:49:44.221Z,374.83
2022-10-28T10:52:23.648Z,271.25
2022-10-28T10:55:22.953Z,385.83
2022-10-28T10:57:49.546Z,273.15
2022-10-28T11:00:19.074Z,456.40
2022-10-28T11:02:50.030Z,355.27
2022-10-28T11:05:25.729Z,449.60
2022-10-28T11:07:58.599Z,453.85
2022-10-28T11:10:30.905Z,539.70
2022-10-28T11:13:02.324Z,460.38
2022-10-28T11:15:30.521Z,397.17
2022-10-28T11:18:17.190Z,394.63
2022-10-28T11:21:04.009Z,390.27
2022-10-28T11:23:36.439Z,393.27
2022-10-28T11:26:07.368Z,387.60
2022-10-28T11:28:55.464Z,381.83
2022-10-28T11:31:44.773Z,379.42
2022-10-28T11:34:24.599Z,371.52
2022-10-28T11:37:12.559Z,363.15
2022-10-28T11:39:55.008Z,354.33
2022-10-28T11:42:27.527Z,354.52
2022-10-28T11:45:08.051Z,343.45
2022-10-28T11:48:22.059Z,343.08
2022-10-28T11:51:18.110Z,334.25
2022-10-28T11:53:47.585Z,327.45
2022-10-28T11:56:25.507Z,328.80
2022-10-28T11:58:58.013Z,320.23
2022-10-28T12:01:42.966Z,321.13
2022-10-28T12:04:39.846Z,319.95
2022-10-28T12:07:06.247Z,313.15
2022-10-28T12:09:38.696Z,304.23
2022-10-28T12:12:17.486Z,305.67
2022-10-28T12:14:57.539Z,303.75
2022-10-28T12:17:29.818Z,295.15
2022-10-28T12:19:56.234Z,288.30
2022-10-28T12:22:57.283Z,293.25
2022-10-28T12:25:30.796Z,282.17
2022-10-28T12:28:04.803Z,282.17
2022-10-28T12:30:34.521Z,279.83
2022-10-28T12:33:19.106Z,279.77
2022-10-28T12:35:54.481Z,269.88
2022-10-28T12:38:59.950Z,263.85
2022-10-28T12:41:31.283Z,243.50
2022-10-28T12:44:04.546Z,243.82
2022-10-28T12:46:57.949Z,230.30
2022-10-28T12:49:42.895Z,223.20
2022-10-28T12:52:31.287Z,213.98
2022-10-28T12:55:26.850Z,206.07
2022-10-28T12:58:01.169Z,196.95
2022-10-28T13:00:36.386Z,192.43
2022-10-28T13:03:07.639Z,182.98
2022-10-28T13:06:06.657Z,195.20
2022-10-28T13:08:45.012Z,240.48
2022-10-28T13:11:20.501Z,245.95
2022-10-28T13:13:47.073Z,250.70
2022-10-28T13:16:32.211Z,263.85
2022-10-28T13:19:23.522Z,256.60
2022-10-28T13:22:21.156Z,258.30
2022-10-28T13:24:56.410Z,247.05
2022-10-28T13:27:23.274Z,246.80
2022-10-28T13:29:53.859Z,238.15
2022-10-28T13:32:38.581Z,201.80
2022-10-28T13:35:22.367Z,200.07
2022-10-28T13:37:51.231Z,199.18
2022-10-28T13:40:40.856Z,198.68
2022-10-28T13:43:21.171Z,187.85
2022-10-28T13:45:49.152Z,200.85
2022-10-28T13:48:45.888Z,190.32
2022-10-28T13:51:12.226Z,192.77
2022-10-28T13:53:47.820Z,185.45
2022-10-28T13:56:31.631Z,198.35
2022-10-28T13:59:02.661Z,180.85
2022-10-28T14:01:56.534Z,183.57
2022-10-28T14:04:39.492Z,180.50
2022-10-28T14:07:08.882Z,178.68
2022-10-28T14:09:36.876Z,180.43
2022-10-28T14:12:26.865Z,176.48
2022-10-28T14:14:58.404Z,172.85
2022-10-28T14:17:30.025Z,171.10
2022-10-28T14:19:57.272Z,174.63
2022-10-28T14:22:37.245Z,166.82
2022-10-28T14:25:43.591Z,162.65
2022-10-28T14:28:31.542Z,166.88
2022-10-28T14:31:14.405Z,161.20
2022-10-28T14:33:46.499Z,159.27
2022-10-28T14:36:19.294Z,159.65
2022-10-28T14:39:04.277Z,166.73
2022-10-28T14:42:08.250Z,155.10
2022-10-28T14:44:43.725Z,152.75
2022-10-28T14:47:22.164Z,153.70
2022-10-28T14:49:59.451Z,151.95
2022-10-28T14:52:28.425Z,145.95
2022-10-28T14:54:58.564Z,148.18
2022-10-28T14:57:33.611Z,147.02
2022-10-28T15:00:07.642Z,146.82
2022-10-28T15:02:37.399Z,148.00
2022-10-28T15:05:28.881Z,141.05
2022-10-28T15:07:58.134Z,141.93
2022-10-28T15:10:38.225Z,140.50
2022-10-28T15:13:07.321Z,146.18
2022-10-28T15:15:37.252Z,136.25
2022-10-28T15:18:21.252Z,139.48
2022-10-28T15:20:47.675Z,142.38
2022-10-28T15:23:23.380Z,135.23
2022-10-28T15:26:15.980Z,130.63
2022-10-28T15:28:43.196Z,132.98
2022-10-28T15:31:09.700Z,132.65
2022-10-28T15:33:41.764Z,130.40
2022-10-28T15:36:23.545Z,128.75
2022-10-28T15:38:51.685Z,131.30
2022-10-28T15:41:30.388Z,126.03
2022-10-28T15:44:01.058Z,126.95
2022-10-28T15:46:29.115Z,122.90
2022-10-28T15:49:00.238Z,123.80
2022-10-28T15:51:27.154Z,125.88
2022-10-28T15:54:19.118Z,122.65
2022-10-28T15:56:57.297Z,120.45
2022-10-28T15:59:25.867Z,117.90
2022-10-28T16:01:55.934Z,119.22
2022-10-28T16:04:22.807Z,119.72
2022-10-28T16:07:07.035Z,109.03
2022-10-28T16:09:52.030Z,111.93
2022-10-28T16:12:22.484Z,112.88
2022-10-28T16:14:56.494Z,115.63
2022-10-28T16:17:26.877Z,110.25
2022-10-28T16:19:55.427Z,111.32
2022-10-28T16:22:24.218Z,113.03
2022-10-28T16:24:52.647Z,107.60
2022-10-28T16:27:24.642Z,109.15
2022-10-28T16:29:51.621Z,107.85
2022-10-28T16:32:25.157Z,103.25
2022-10-28T16:34:51.646Z,102.57
2022-10-28T16:37:23.195Z,103.93
2022-10-28T16:39:49.733Z,102.80
2022-10-28T16:42:16.965Z,102.70
2022-10-28T16:44:43.711Z,102.65
2022-10-28T16:47:15.014Z,102.82
2022-10-28T16:49:42.115Z,100.20
2022-10-28T16:52:17.868Z,100.88
2022-10-28T16:54:44.284Z,99.25
2022-10-28T16:57:10.751Z,100.75
2022-10-28T16:59:37.487Z,95.10
2022-10-28T17:02:06.712Z,92.57
2022-10-28T17:04:33.308Z,96.57
2022-10-28T17:06:59.894Z,92.00
2022-10-28T17:09:26.322Z,92.47
2022-10-28T17:11:52.724Z,90.90
2022-10-28T17:14:19.276Z,94.47
2022-10-28T17:16:45.769Z,90.70
2022-10-28T17:19:12.317Z,89.80
2022-10-28T17:21:38.813Z,89.88
2022-10-28T17:24:05.772Z,94.65
2022-10-28T17:26:32.204Z,87.63
2022-10-28T17:28:58.679Z,86.00
2022-10-28T17:31:25.691Z,86.10
2022-10-28T17:33:55.783Z,86.97
2022-10-28T17:36:23.183Z,83.07
2022-10-28T17:38:49.885Z,83.90
2022-10-28T17:41:16.440Z,84.80
2022-10-28T17:43:42.976Z,86.93
2022-10-28T17:46:09.781Z,87.78
2022-10-28T17:48:36.295Z,86.78
2022-10-28T17:51:02.835Z,82.50
2022-10-28T17:53:29.350Z,81.40
2022-10-28T17:56:00.874Z,80.05
2022-10-28T17:58:28.143Z,80.60
2022-10-28T18:00:58.179Z,79.82
2022-10-28T18:03:25.009Z,79.75
2022-10-28T18:05:51.994Z,83.70
2022-10-28T18:08:20.278Z,80.90
2022-10-28T18:10:54.953Z,77.30
2022-10-28T18:13:36.360Z,75.00
2022-10-28T18:16:13.234Z,77.72
2022-10-28T18:18:42.480Z,76.82
2022-10-28T18:21:10.636Z,75.53
2022-10-28T18:23:37.160Z,75.70
2022-10-28T18:26:23.869Z,76.28
2022-10-28T18:28:50.367Z,72.70
2022-10-28T18:31:19.837Z,71.30
2022-10-28T18:33:46.909Z,72.32
2022-10-28T18:36:16.610Z,73.05
2022-10-28T18:38:43.249Z,71.13
2022-10-28T18:41:14.830Z,70.25
2022-10-28T18:43:41.557Z,71.22
2022-10-28T18:46:08.639Z,70.18
2022-10-28T18:48:35.307Z,71.25
2022-10-28T18:51:06.688Z,69.80
2022-10-28T18:53:42.511Z,67.30
2022-10-28T18:56:16.930Z,67.15
2022-10-28T18:58:43.686Z,67.55
2022-10-28T19:01:15.096Z,67.40
2022-10-28T19:03:42.682Z,65.60
2022-10-28T19:06:12.132Z,65.93
2022-10-28T19:08:39.328Z,66.15
2022-10-28T19:11:07.049Z,68.65
2022-10-28T19:13:35.505Z,63.75
2022-10-28T19:16:02.380Z,64.65
2022-10-28T19:18:28.881Z,64.60
2022-10-28T19:21:04.059Z,64.70
2022-10-28T19:23:34.127Z,61.65
2022-10-28T19:26:00.788Z,63.10
2022-10-28T19:28:27.758Z,60.97
2022-10-28T19:31:01.935Z,60.50
2022-10-28T19:33:30.019Z,61.25
2022-10-28T19:36:18.565Z,61.58
2022-10-28T19:38:46.747Z,59.90
2022-10-28T19:41:15.486Z,60.10
2022-10-28T19:43:43.513Z,60.85
2022-10-28T19:46:15.638Z,63.15
2022-10-28T19:48:47.320Z,57.22
2022-10-28T19:51:16.438Z,58.83
2022-10-28T19:53:49.601Z,59.35
2022-10-28T19:56:19.156Z,56.90
2022-10-28T19:58:47.286Z,58.30
2022-10-28T20:01:14.327Z,57.78
2022-10-28T20:03:45.082Z,57.22
2022-10-28T20:06:15.487Z,56.67
2022-10-28T20:08:44.435Z,54.40
2022-10-28T20:11:13.941Z,56.45
2022-10-28T20:13:40.547Z,55.72
2022-10-28T20:16:10.642Z,56.70
2022-10-28T20:18:38.001Z,55.63
2022-10-28T20:21:06.757Z,52.47
2022-10-28T20:23:35.573Z,52.80
2022-10-28T20:26:05.528Z,55.05
2022-10-28T20:28:32.183Z,55.53
2022-10-28T20:30:59.815Z,53.72
2022-10-28T20:33:26.889Z,54.90
2022-10-28T20:35:54.617Z,52.75
2022-10-28T20:38:21.429Z,51.45
2022-10-28T20:40:57.211Z,50.85
2022-10-28T20:43:25.616Z,50.03
2022-10-28T20:45:56.718Z,51.83
2022-10-28T20:48:23.249Z,50.55
2022-10-28T20:50:52.468Z,50.90
2022-10-28T20:53:21.713Z,49.05
2022-10-28T20:55:49.072Z,51.08
2022-10-28T20:58:15.516Z,49.97
2022-10-28T21:00:42.253Z,48.63
2022-10-28T21:03:09.270Z,49.58
2022-10-28T21:05:35.799Z,47.38
2022-10-28T21:08:02.816Z,49.70
2022-10-28T21:10:29.205Z,48.22
2022-10-28T21:12:55.775Z,47.15
2022-10-28T21:15:22.218Z,47.00
2022-10-28T21:17:48.640Z,46.22
2022-10-28T21:20:15.161Z,46.80
2022-10-28T21:22:41.558Z,45.35
2022-10-28T21:25:08.434Z,46.30
2022-10-28T21:27:35.090Z,47.08
2022-10-28T21:30:01.599Z,45.65
2022-10-28T21:32:28.015Z,44.25
2022-10-28T21:34:54.427Z,45.58
2022-10-28T21:37:21.271Z,45.17
2022-10-28T21:39:51.250Z,45.40
2022-10-28T21:42:18.302Z,42.33
2022-10-28T21:44:44.672Z,43.97
2022-10-28T21:47:11.150Z,44.03
2022-10-28T21:49:37.645Z,43.53
2022-10-28T21:52:04.209Z,43.85
2022-10-28T21:54:32.289Z,43.28
2022-10-28T21:56:58.658Z,42.00
2022-10-28T21:59:25.080Z,42.47
2022-10-28T22:01:51.612Z,41.03
2022-10-28T22:04:18.126Z,39.67
2022-10-28T22:06:44.666Z,41.33
2022-10-28T22:09:11.118Z,40.90
2022-10-28T22:11:37.735Z,40.63
2022-10-28T22:14:05.180Z,39.53
2022-10-28T22:16:33.936Z,39.80
2022-10-28T22:19:03.062Z,40.92
2022-10-28T22:21:32.026Z,39.47
2022-10-28T22:23:58.534Z,39.20
2022-10-28T22:26:29.911Z,38.28
2022-10-28T22:28:56.436Z,38.97
2022-10-28T22:31:26.701Z,36.70
2022-10-28T22:33:53.231Z,39.17
2022-10-28T22:36:22.541Z,39.47
2022-10-28T22:38:49.227Z,37.10
2022-10-28T22:41:19.575Z,39.33
2022-10-28T22:43:49.624Z,38.40
2022-10-28T22:46:17.032Z,37.50
2022-10-28T22:48:44.034Z,36.50
2022-10-28T22:51:10.921Z,36.47
2022-10-28T22:53:38.976Z,36.63
2022-10-28T22:56:07.218Z,36.78
2022-10-28T22:58:33.674Z,36.17
2022-10-28T23:01:17.586Z,35.40
2022-10-28T23:03:46.175Z,35.55
2022-10-28T23:06:14.633Z,35.28
2022-10-28T23:08:42.443Z,35.22
2022-10-28T23:11:09.750Z,33.67
2022-10-28T23:16:05.007Z,35.25
2022-10-28T23:18:31.701Z,34.05
2022-10-28T23:21:13.755Z,36.08
2022-10-28T23:23:41.395Z,34.15
2022-10-28T23:26:10.555Z,32.42
2022-10-28T23:28:37.113Z,34.88
2022-10-28T23:31:05.262Z,33.80
2022-10-28T23:33:33.455Z,33.63
2022-10-28T23:36:02.261Z,32.65
2022-10-28T23:38:28.684Z,32.00
2022-10-28T23:41:05.576Z,33.53
2022-10-28T23:43:33.052Z,32.83
2022-10-28T23:46:00.123Z,33.80
2022-10-28T23:48:28.280Z,33.03
2022-10-28T23:50:55.597Z,32.72
2022-10-28T23:53:22.478Z,32.65
2022-10-28T23:55:50.353Z,31.13
2022-10-28T23:58:18.218Z,31.00
